createdAt,value
2023-04-28T00:02:13.515Z,22
2023-04-28T00:07:30.427Z,21
2023-04-28T00:12:46.821Z,20
2023-04-28T00:18:03.216Z,16
2023-04-28T00:23:19.861Z,24
2023-04-28T00:28:36.252Z,20
2023-04-28T00:33:52.630Z,21
2023-04-28T00:39:09.016Z,17
2023-04-28T00:44:25.392Z,18
2023-04-28T00:49:41.779Z,14
2023-04-28T00:54:58.169Z,19
2023-04-28T01:00:14.554Z,14
2023-04-28T01:05:30.966Z,16
2023-04-28T01:10:47.360Z,12
2023-04-28T01:16:03.712Z,18
2023-04-28T01:21:20.098Z,18
2023-04-28T01:26:36.466Z,13
2023-04-28T01:31:53.022Z,17
2023-04-28T01:37:09.197Z,14
2023-04-28T01:42:25.604Z,12
2023-04-28T01:47:42.006Z,9
2023-04-28T01:52:58.355Z,9
2023-04-28T01:58:15.452Z,9
2023-04-28T02:03:32.036Z,9
2023-04-28T02:08:48.196Z,9
2023-04-28T02:14:04.575Z,8
2023-04-28T02:19:21.440Z,7
2023-04-28T02:24:37.809Z,10
2023-04-28T02:29:54.192Z,11
2023-04-28T02:35:10.623Z,7
2023-04-28T02:40:26.952Z,12
2023-04-28T02:45:43.321Z,8
2023-04-28T02:50:59.707Z,13
2023-04-28T02:56:16.069Z,5
2023-04-28T03:01:32.525Z,6
2023-04-28T03:06:48.810Z,7
2023-04-28T03:12:05.185Z,9
2023-04-28T03:17:21.577Z,11
2023-04-28T03:22:37.949Z,9
2023-04-28T03:27:54.335Z,8
2023-04-28T03:33:11.029Z,8
2023-04-28T03:38:27.785Z,7
2023-04-28T03:43:44.150Z,11
2023-04-28T03:49:00.518Z,7
2023-04-28T03:54:17.112Z,10
2023-04-28T03:59:33.263Z,11
2023-04-28T04:04:49.867Z,10
2023-04-28T04:10:06.038Z,10
2023-04-28T04:15:22.402Z,10
2023-04-28T04:20:38.793Z,8
2023-04-28T04:25:55.169Z,8
2023-04-28T04:31:11.566Z,14
2023-04-28T04:36:27.929Z,22
2023-04-28T04:41:44.319Z,17
2023-04-28T04:47:00.906Z,14
2023-04-28T04:52:17.097Z,11
2023-04-28T04:57:33.432Z,10
2023-04-28T05:02:50.744Z,13
2023-04-28T05:08:06.917Z,10
2023-04-28T05:13:23.280Z,11
2023-04-28T05:18:39.646Z,6
2023-04-28T05:23:56.287Z,11
2023-04-28T05:29:12.664Z,12
2023-04-28T05:34:29.036Z,19
2023-04-28T05:39:45.415Z,14
2023-04-28T05:45:01.807Z,18
2023-04-28T05:50:18.175Z,12
2023-04-28T05:55:34.559Z,12
2023-04-28T06:00:50.959Z,11
2023-04-28T06:06:09.953Z,14
2023-04-28T06:11:23.732Z,10
2023-04-28T06:16:40.081Z,11
2023-04-28T06:21:56.743Z,14
2023-04-28T06:27:13.107Z,10
2023-04-28T06:32:29.532Z,12
2023-04-28T06:37:45.828Z,15
2023-04-28T06:43:02.214Z,14
2023-04-28T06:48:18.568Z,11
2023-04-28T06:53:35.722Z,12
2023-04-28T06:58:52.095Z,12
2023-04-28T07:04:08.664Z,15
2023-04-28T07:09:24.815Z,13
2023-04-28T07:14:41.172Z,11
2023-04-28T07:19:57.538Z,9
2023-04-28T07:25:13.893Z,9
2023-04-28T07:30:30.270Z,10
2023-04-28T07:35:46.695Z,9
2023-04-28T07:41:03.053Z,8
2023-04-28T07:46:19.455Z,8
2023-04-28T07:51:35.763Z,7
2023-04-28T07:56:52.100Z,7
2023-04-28T08:02:08.539Z,9
2023-04-28T08:07:24.900Z,7
2023-04-28T08:12:41.210Z,10
2023-04-28T08:17:57.586Z,7
2023-04-28T08:23:57.503Z,8
2023-04-28T08:30:11.114Z,7
2023-04-28T08:35:27.452Z,7
2023-04-28T08:40:43.818Z,8
2023-04-28T08:46:00.140Z,5
2023-04-28T08:51:16.515Z,8
2023-04-28T08:56:32.835Z,8
2023-04-28T09:01:49.214Z,10
2023-04-28T09:07:05.530Z,6
2023-04-28T09:12:21.877Z,6
2023-04-28T09:17:38.222Z,7
2023-04-28T09:22:55.351Z,6
2023-04-28T09:28:11.693Z,6
2023-04-28T09:33:28.130Z,6
2023-04-28T09:38:44.425Z,17
2023-04-28T09:44:02.242Z,9
2023-04-28T09:49:18.702Z,13
2023-04-28T09:54:35.052Z,8
2023-04-28T09:59:51.417Z,8
2023-04-28T10:05:07.919Z,7
2023-04-28T10:10:24.118Z,9
2023-04-28T10:15:40.505Z,10
2023-04-28T10:20:56.828Z,11
2023-04-28T10:26:13.158Z,10
2023-04-28T10:31:29.629Z,8
2023-04-28T10:36:45.862Z,12
2023-04-28T10:42:02.248Z,9
2023-04-28T10:47:18.576Z,10
2023-04-28T10:52:34.975Z,10
2023-04-28T10:57:51.308Z,34
2023-04-28T11:03:07.879Z,13
2023-04-28T11:08:24.039Z,13
2023-04-28T11:13:42.325Z,8
2023-04-28T11:18:56.741Z,7
2023-04-28T11:24:13.074Z,7
2023-04-28T11:29:29.392Z,6
2023-04-28T11:34:45.746Z,8
2023-04-28T11:40:02.113Z,7
2023-04-28T11:45:18.412Z,3
2023-04-28T11:50:34.752Z,3
2023-04-28T11:55:51.092Z,2
2023-04-28T12:01:07.443Z,2
2023-04-28T12:06:23.762Z,4
2023-04-28T12:11:40.105Z,2
2023-04-28T12:16:56.427Z,3
2023-04-28T12:22:12.776Z,5
2023-04-28T12:27:29.181Z,8
2023-04-28T12:32:45.524Z,2
2023-04-28T12:38:01.819Z,4
2023-04-28T12:43:18.159Z,3
2023-04-28T12:48:34.487Z,2
2023-04-28T12:53:50.817Z,2
2023-04-28T12:59:07.320Z,0
2023-04-28T13:04:23.936Z,1
2023-04-28T13:09:40.009Z,3
2023-04-28T13:14:56.541Z,2
2023-04-28T13:20:12.644Z,1
2023-04-28T13:25:29.344Z,1
2023-04-28T13:30:46.437Z,2
2023-04-28T13:36:02.792Z,2
2023-04-28T13:41:19.130Z,1
2023-04-28T13:46:35.460Z,1
2023-04-28T13:51:51.797Z,2
2023-04-28T13:57:08.142Z,3
2023-04-28T14:02:24.712Z,1
2023-04-28T14:07:40.795Z,15
2023-04-28T14:12:57.154Z,8
2023-04-28T14:18:13.475Z,2
2023-04-28T14:23:29.814Z,2
2023-04-28T14:28:46.149Z,2
2023-04-28T14:34:02.485Z,4
2023-04-28T14:39:18.859Z,2
2023-04-28T14:44:35.146Z,1
2023-04-28T14:49:51.495Z,2
2023-04-28T14:55:07.824Z,2
2023-04-28T15:00:24.181Z,2
2023-04-28T15:05:40.489Z,2
2023-04-28T15:10:56.843Z,2
2023-04-28T15:16:13.217Z,1
2023-04-28T15:21:29.489Z,3
2023-04-28T15:26:45.815Z,2
2023-04-28T15:32:02.213Z,4
2023-04-28T15:37:18.486Z,2
2023-04-28T15:42:34.831Z,2
2023-04-28T15:47:51.339Z,1
2023-04-28T15:53:07.507Z,4
2023-04-28T15:58:23.839Z,2
2023-04-28T16:03:40.353Z,2
2023-04-28T16:08:56.689Z,2
2023-04-28T16:14:12.854Z,2
2023-04-28T16:19:29.189Z,2
2023-04-28T16:24:45.529Z,2
2023-04-28T16:30:01.892Z,1
2023-04-28T16:35:18.218Z,2
2023-04-28T16:40:34.559Z,1
2023-04-28T16:45:50.950Z,2
2023-04-28T16:51:07.221Z,4
2023-04-28T16:56:23.562Z,2
2023-04-28T17:01:39.968Z,3
2023-04-28T17:06:56.234Z,3
2023-04-28T17:12:12.587Z,4
2023-04-28T17:17:29.072Z,4
2023-04-28T17:22:45.983Z,4
2023-04-28T17:28:02.315Z,5
2023-04-28T17:33:18.681Z,4
2023-04-28T17:38:35.039Z,4
2023-04-28T17:43:51.370Z,5
2023-04-28T17:49:07.908Z,6
2023-04-28T17:54:24.082Z,12
2023-04-28T17:59:40.490Z,26
2023-04-28T18:04:57.613Z,27
2023-04-28T18:10:13.933Z,21
2023-04-28T18:15:30.267Z,5
2023-04-28T18:20:46.659Z,11
2023-04-28T18:26:03.013Z,8
2023-04-28T18:31:19.396Z,8
2023-04-28T18:36:35.727Z,12
2023-04-28T18:41:52.090Z,10
2023-04-28T18:47:08.506Z,8
2023-04-28T18:52:24.803Z,8
2023-04-28T18:57:41.147Z,7
2023-04-28T19:02:57.732Z,6
2023-04-28T19:08:13.841Z,5
2023-04-28T19:13:30.215Z,15
2023-04-28T19:18:46.594Z,12
2023-04-28T19:24:02.935Z,20
2023-04-28T19:29:19.305Z,14
2023-04-28T19:34:35.649Z,11
2023-04-28T19:39:52.080Z,10
2023-04-28T19:45:08.383Z,18
2023-04-28T19:50:24.798Z,22
2023-04-28T19:55:41.163Z,15
2023-04-28T20:00:57.557Z,10
2023-04-28T20:06:13.912Z,13
2023-04-28T20:11:30.303Z,10
2023-04-28T20:16:46.653Z,12
2023-04-28T20:22:03.023Z,13
2023-04-28T20:27:19.391Z,25
2023-04-28T20:32:35.791Z,11
2023-04-28T20:37:52.123Z,12
2023-04-28T20:43:08.506Z,12
2023-04-28T20:48:24.875Z,10
2023-04-28T20:53:41.250Z,11
2023-04-28T20:58:57.626Z,13
2023-04-28T21:04:14.231Z,11
2023-04-28T21:09:30.383Z,10
2023-04-28T21:14:46.753Z,10
2023-04-28T21:20:03.130Z,8
2023-04-28T21:25:19.496Z,10
2023-04-28T21:30:35.880Z,10
2023-04-28T21:35:52.239Z,10
2023-04-28T21:41:08.611Z,9
2023-04-28T21:46:24.982Z,8
2023-04-28T21:51:41.335Z,9
2023-04-28T21:56:57.698Z,8
2023-04-28T22:02:14.084Z,8
2023-04-28T22:07:30.446Z,12
2023-04-28T22:12:47.523Z,7
2023-04-28T22:18:03.931Z,11
2023-04-28T22:23:20.275Z,8
2023-04-28T22:28:36.654Z,7
2023-04-28T22:33:53.026Z,7
2023-04-28T22:39:09.391Z,9
2023-04-28T22:44:25.734Z,7
2023-04-28T22:49:42.110Z,8
2023-04-28T22:54:58.476Z,6
2023-04-28T23:00:14.858Z,9
2023-04-28T23:05:32.360Z,8
2023-04-28T23:10:48.735Z,8
2023-04-28T23:16:05.134Z,12
2023-04-28T23:21:21.497Z,9
2023-04-28T23:26:37.851Z,10
2023-04-28T23:31:54.286Z,11
2023-04-28T23:37:10.622Z,9
2023-04-28T23:42:27.003Z,9
2023-04-28T23:47:43.397Z,13
2023-04-28T23:52:59.783Z,17
2023-04-28T23:58:16.141Z,15
